Time;durP1;ratioP1;P1;durP2;ratioP2;P2;SDS_P1;SDS_P2;PMS_P1;PMS_P2;Temp;Humidity;BMP_temperature;BMP_pressure;BME280_temperature;BME280_humidity;BME280_pressure;Samples;Min_cycle;Max_cycle;Signal;HPM_P1;HPM_P2
2023/03/03 00:01:25;;;;;;;58.28;21.73;;;3.50;99.90;;;;;;4970537;28;20027;-80
2023/03/03 00:03:52;;;;;;;56.03;20.70;;;3.60;99.90;;;;;;4984416;28;20034;-80
2023/03/03 00:06:18;;;;;;;59.35;22.30;;;3.50;99.90;;;;;;4984688;28;20050;-80
2023/03/03 00:08:44;;;;;;;63.28;20.55;;;3.50;99.90;;;;;;4986461;28;20025;-80
2023/03/03 00:11:10;;;;;;;64.57;22.17;;;3.40;99.90;;;;;;4986035;28;20030;-80
2023/03/03 00:13:49;;;;;;;65.32;19.83;;;3.50;99.90;;;;;;4982936;28;20023;-80
2023/03/03 00:16:19;;;;;;;55.25;19.90;;;3.50;99.90;;;;;;4963323;28;20030;-79
2023/03/03 00:18:46;;;;;;;59.75;20.88;;;3.60;99.90;;;;;;4984716;28;20469;-80
2023/03/03 00:21:30;;;;;;;62.78;20.33;;;3.60;99.90;;;;;;4987316;28;20431;-80
2023/03/03 00:24:23;;;;;;;61.22;20.25;;;3.60;99.90;;;;;;4966714;28;20399;-80
2023/03/03 00:26:50;;;;;;;;;;;3.60;99.90;;;;;;4961704;28;20049;-80
2023/03/03 00:29:39;;;;;;;57.08;19.38;;;3.60;99.90;;;;;;4985934;28;19906;-80
2023/03/03 00:32:11;;;;;;;58.28;20.45;;;3.70;99.90;;;;;;4985331;28;20030;-80
2023/03/03 00:34:36;;;;;;;65.05;21.45;;;3.70;99.90;;;;;;4966648;28;20032;-80
2023/03/03 00:37:18;;;;;;;77.35;23.50;;;3.70;99.90;;;;;;4965800;28;20286;-79
2023/03/03 00:39:44;;;;;;;80.78;24.55;;;3.70;99.90;;;;;;4984777;28;20030;-79
2023/03/03 00:42:15;;;;;;;69.38;22.50;;;3.70;99.90;;;;;;4986035;28;20453;-79
2023/03/03 00:44:44;;;;;;;72.35;22.55;;;3.70;99.90;;;;;;4984231;28;20033;-80
2023/03/03 00:47:37;;;;;;;70.70;22.90;;;3.60;99.90;;;;;;4984458;28;20034;-79
2023/03/03 00:50:06;;;;;;;74.72;21.85;;;3.70;99.90;;;;;;4959877;28;20027;-80
2023/03/03 00:52:43;;;;;;;77.28;24.00;;;3.60;99.90;;;;;;4967021;28;20018;-80
2023/03/03 00:55:10;;;;;;;73.13;23.77;;;3.50;99.90;;;;;;4985089;28;20038;-79
2023/03/03 00:57:36;;;;;;;69.00;21.58;;;3.60;99.90;;;;;;4966131;28;20067;-80
2023/03/03 01:00:03;;;;;;;80.15;23.27;;;3.50;99.90;;;;;;4984837;28;20434;-80
2023/03/03 01:02:29;;;;;;;68.50;21.42;;;3.60;99.90;;;;;;4965480;28;20110;-80
2023/03/03 01:04:55;;;;;;;72.22;23.15;;;3.60;99.90;;;;;;4983845;28;20035;-80
2023/03/03 01:07:21;;;;;;;68.00;22.83;;;3.60;99.90;;;;;;4981772;28;20065;-80
2023/03/03 01:09:47;;;;;;;74.82;21.88;;;3.50;99.90;;;;;;4967638;28;20022;-80
2023/03/03 01:12:13;;;;;;;74.15;21.27;;;3.50;99.90;;;;;;4983132;28;20576;-80
2023/03/03 01:14:40;;;;;;;76.72;21.10;;;3.50;99.90;;;;;;4963767;28;20048;-80
2023/03/03 01:17:05;;;;;;;74.30;21.60;;;3.50;99.90;;;;;;4984280;28;20395;-79
2023/03/03 01:19:31;;;;;;;83.75;22.20;;;3.50;99.90;;;;;;4985333;28;20022;-80
2023/03/03 01:21:57;;;;;;;68.90;21.60;;;3.50;99.90;;;;;;4984362;28;20042;-80
2023/03/03 01:24:23;;;;;;;82.68;23.23;;;3.40;99.90;;;;;;4967134;28;20446;-80
2023/03/03 01:26:51;;;;;;;76.63;22.13;;;3.40;99.90;;;;;;4983548;28;20399;-80
2023/03/03 01:29:19;;;;;;;73.32;22.20;;;3.50;99.90;;;;;;4984171;28;20014;-80
2023/03/03 01:31:45;;;;;;;78.22;21.80;;;3.50;99.90;;;;;;4964302;28;20026;-80
2023/03/03 01:34:10;;;;;;;84.57;23.15;;;3.50;99.90;;;;;;4984804;28;20045;-80
2023/03/03 01:36:36;;;;;;;82.40;23.00;;;3.50;99.90;;;;;;4985159;28;20049;-80
2023/03/03 01:39:02;;;;;;;80.80;22.60;;;3.50;99.90;;;;;;4983421;28;20113;-79
2023/03/03 01:41:32;;;;;;;85.57;22.73;;;3.50;99.90;;;;;;4984744;28;20396;-80
2023/03/03 01:43:58;;;;;;;84.25;23.52;;;3.50;99.90;;;;;;4983085;28;20089;-80
2023/03/03 01:46:28;;;;;;;75.72;22.38;;;3.60;99.90;;;;;;4965068;28;20033;-80
2023/03/03 01:49:02;;;;;;;84.60;23.02;;;3.50;99.90;;;;;;4967145;28;20429;-80
2023/03/03 01:51:41;;;;;;;83.00;23.60;;;3.50;99.90;;;;;;4966693;28;20015;-80
2023/03/03 01:54:13;;;;;;;80.65;22.88;;;3.50;99.90;;;;;;4983029;28;20026;-81
2023/03/03 01:56:41;;;;;;;80.70;23.15;;;3.50;99.90;;;;;;4980997;28;20054;-81
2023/03/03 01:59:18;;;;;;;85.63;23.00;;;3.50;99.90;;;;;;4963990;28;20038;-81
2023/03/03 02:01:46;;;;;;;79.53;21.50;;;3.50;99.90;;;;;;4984010;28;20026;-81
2023/03/03 02:04:12;;;;;;;81.53;23.42;;;3.40;99.90;;;;;;4982796;28;20041;-82
2023/03/03 02:06:43;;;;;;;86.22;22.65;;;3.40;99.90;;;;;;4982788;28;20030;-82
2023/03/03 02:10:01;;;;;;;87.18;24.58;;;3.40;99.90;;;;;;4984234;28;20026;-81
2023/03/03 02:12:51;;;;;;;87.63;24.40;;;3.40;99.90;;;;;;4934920;28;20499;-81
2023/03/03 02:15:19;;;;;;;99.45;25.63;;;3.40;99.90;;;;;;4970296;28;20035;-81
2023/03/03 02:17:47;;;;;;;92.57;24.73;;;3.40;99.90;;;;;;4984352;28;20026;-81
2023/03/03 02:20:19;;;;;;;90.72;24.35;;;3.40;99.90;;;;;;4985623;28;20022;-81
2023/03/03 02:23:07;;;;;;;93.85;25.63;;;3.40;99.90;;;;;;4982893;28;20030;-81
2023/03/03 02:25:59;;;;;;;97.55;23.35;;;3.50;99.90;;;;;;4983592;28;20061;-81
2023/03/03 02:28:31;;;;;;;88.90;25.27;;;3.50;99.90;;;;;;4982081;28;20026;-81
2023/03/03 02:30:58;;;;;;;84.70;23.67;;;3.60;99.90;;;;;;4962800;28;20086;-82
2023/03/03 02:33:28;;;;;;;83.70;23.73;;;3.50;99.90;;;;;;4999220;28;20022;-82
2023/03/03 02:35:54;;;;;;;85.78;24.13;;;3.50;99.90;;;;;;4998335;28;20046;-79
2023/03/03 02:38:40;;;;;;;80.47;22.20;;;3.50;99.90;;;;;;4987327;28;20056;-79
2023/03/03 02:41:27;;;;;;;88.93;24.05;;;3.50;99.90;;;;;;4963466;28;20023;-79
2023/03/03 02:44:07;;;;;;;77.18;23.17;;;3.50;99.90;;;;;;4966716;28;20518;-80
2023/03/03 02:46:36;;;;;;;92.43;24.65;;;3.40;99.90;;;;;;4982106;28;20614;-80
2023/03/03 02:49:04;;;;;;;95.32;25.23;;;3.50;99.90;;;;;;4985065;28;20101;-80
2023/03/03 02:51:30;;;;;;;100.28;25.73;;;3.50;99.90;;;;;;4982569;28;20026;-80
2023/03/03 02:53:55;;;;;;;100.10;27.02;;;3.50;99.90;;;;;;4983490;28;20042;-80
2023/03/03 02:56:21;;;;;;;100.55;27.05;;;3.40;99.90;;;;;;4981491;28;20110;-79
2023/03/03 02:58:47;;;;;;;102.63;26.85;;;3.40;99.90;;;;;;4984183;28;20226;-79
2023/03/03 03:01:12;;;;;;;92.53;25.25;;;3.30;99.90;;;;;;4984990;28;20035;-79
2023/03/03 03:03:38;;;;;;;93.50;25.30;;;3.30;99.90;;;;;;4982993;28;20450;-80
2023/03/03 03:06:04;;;;;;;98.03;25.10;;;3.30;99.90;;;;;;4984632;28;20030;-79
2023/03/03 03:08:32;;;;;;;96.05;25.63;;;3.30;99.90;;;;;;4984497;28;20037;-80
2023/03/03 03:10:58;;;;;;;104.85;26.70;;;3.20;99.90;;;;;;4991335;28;20026;-80
2023/03/03 03:13:24;;;;;;;101.50;26.50;;;3.30;99.90;;;;;;4983274;28;20133;-81
2023/03/03 03:15:49;;;;;;;90.50;24.70;;;3.40;99.90;;;;;;4979415;28;20022;-79
2023/03/03 03:18:16;;;;;;;86.60;24.48;;;3.30;99.90;;;;;;4980491;28;20324;-80
2023/03/03 03:20:42;;;;;;;85.30;25.42;;;3.30;99.90;;;;;;4988329;28;20082;-81
2023/03/03 03:23:08;;;;;;;83.10;24.35;;;3.30;99.90;;;;;;5010620;28;20051;-81
2023/03/03 03:25:36;;;;;;;81.32;23.48;;;3.30;99.90;;;;;;4991180;28;20033;-81
2023/03/03 03:28:04;;;;;;;83.03;25.23;;;3.20;99.90;;;;;;5011723;28;20019;-81
2023/03/03 03:30:30;;;;;;;77.68;24.80;;;3.30;99.90;;;;;;5009659;28;20305;-81
2023/03/03 03:32:55;;;;;;;74.22;24.65;;;3.30;99.90;;;;;;5010230;28;20035;-82
2023/03/03 03:35:23;;;;;;;85.60;25.75;;;3.30;99.90;;;;;;4981285;28;20022;-81
2023/03/03 03:37:49;;;;;;;77.63;24.75;;;3.40;99.90;;;;;;4968737;28;20383;-81
2023/03/03 03:40:17;;;;;;;73.32;24.38;;;3.40;99.90;;;;;;4969529;28;20018;-81
2023/03/03 03:42:43;;;;;;;72.22;23.95;;;3.40;99.90;;;;;;4988144;28;20056;-81
2023/03/03 03:45:09;;;;;;;68.13;23.63;;;3.40;99.90;;;;;;4969334;28;20610;-81
2023/03/03 03:47:34;;;;;;;69.65;24.23;;;3.40;99.90;;;;;;4968883;28;20030;-80
2023/03/03 03:50:05;;;;;;;62.45;22.55;;;3.30;99.90;;;;;;4987126;28;20033;-81
2023/03/03 03:52:31;;;;;;;59.97;22.65;;;3.40;99.90;;;;;;4968209;28;20030;-81
2023/03/03 03:54:56;;;;;;;60.45;20.70;;;3.40;99.90;;;;;;4987562;28;20053;-81
2023/03/03 03:57:22;;;;;;;61.03;21.50;;;3.40;99.90;;;;;;4969517;28;20100;-81
2023/03/03 03:59:49;;;;;;;54.80;20.38;;;3.50;99.90;;;;;;4985064;28;20023;-81
2023/03/03 04:02:17;;;;;;;57.10;21.52;;;3.50;99.90;;;;;;4966279;28;20026;-81
2023/03/03 04:04:43;;;;;;;56.58;20.77;;;3.40;99.90;;;;;;4966257;28;20699;-81
2023/03/03 04:07:09;;;;;;;57.20;21.40;;;3.40;99.90;;;;;;4988664;28;20027;-82
2023/03/03 04:09:34;;;;;;;52.35;20.48;;;3.40;99.90;;;;;;4964935;28;20104;-78
2023/03/03 04:12:00;;;;;;;58.35;20.85;;;3.50;99.90;;;;;;4986036;28;20619;-79
2023/03/03 04:14:28;;;;;;;54.90;20.30;;;3.50;99.90;;;;;;4967456;28;20027;-79
2023/03/03 04:16:54;;;;;;;47.70;20.33;;;3.50;99.90;;;;;;4985116;28;20018;-79
2023/03/03 04:19:19;;;;;;;44.33;18.50;;;3.50;99.90;;;;;;4986242;28;20466;-80
2023/03/03 04:21:45;;;;;;;46.55;18.55;;;3.50;99.90;;;;;;4986332;28;20096;-80
2023/03/03 04:24:11;;;;;;;49.45;19.63;;;3.40;99.90;;;;;;4986210;28;20030;-78
2023/03/03 04:26:36;;;;;;;52.55;19.63;;;3.50;99.90;;;;;;4965953;28;20053;-79
2023/03/03 04:29:02;;;;;;;53.72;20.42;;;3.50;99.90;;;;;;4969684;28;20576;-81
2023/03/03 04:31:28;;;;;;;49.78;18.38;;;3.50;99.90;;;;;;4986681;28;20026;-82
2023/03/03 04:33:53;;;;;;;47.30;18.73;;;3.60;99.90;;;;;;4986736;28;20019;-80
2023/03/03 04:36:19;;;;;;;48.97;18.70;;;3.60;99.90;;;;;;4985602;28;20101;-81
2023/03/03 04:38:46;;;;;;;46.20;18.27;;;3.50;99.90;;;;;;4984754;28;20050;-81
2023/03/03 04:41:11;;;;;;;46.88;18.38;;;3.50;99.90;;;;;;4972189;28;20387;-80
2023/03/03 04:43:37;;;;;;;46.65;19.10;;;3.50;99.90;;;;;;4984113;28;20034;-81
2023/03/03 04:46:03;;;;;;;47.17;18.60;;;3.60;99.90;;;;;;4986854;28;20034;-81
2023/03/03 04:48:31;;;;;;;53.78;19.08;;;3.60;99.90;;;;;;4986130;28;20025;-81
2023/03/03 04:50:57;;;;;;;50.30;19.80;;;3.60;99.90;;;;;;4987884;28;20018;-81
2023/03/03 04:53:23;;;;;;;46.50;17.38;;;3.70;99.90;;;;;;4984882;28;20037;-81
2023/03/03 04:55:50;;;;;;;46.45;16.15;;;3.70;99.90;;;;;;4986466;28;20371;-81
2023/03/03 04:58:18;;;;;;;40.88;16.15;;;3.70;99.90;;;;;;4968667;28;20085;-82
2023/03/03 05:00:51;;;;;;;39.47;15.65;;;3.70;99.90;;;;;;4967494;28;20266;-81
2023/03/03 05:03:18;;;;;;;52.85;16.15;;;3.60;99.90;;;;;;4968176;28;20030;-81
2023/03/03 05:05:47;;;;;;;39.97;14.98;;;3.70;99.90;;;;;;4964396;28;20038;-80
2023/03/03 05:08:13;;;;;;;40.85;15.32;;;3.60;99.90;;;;;;4984363;28;20029;-81
2023/03/03 05:10:39;;;;;;;34.25;13.60;;;3.60;99.90;;;;;;4982196;28;20014;-80
2023/03/03 05:13:05;;;;;;;38.95;14.90;;;3.70;99.90;;;;;;4966614;28;20023;-81
2023/03/03 05:15:31;;;;;;;42.08;15.32;;;3.60;99.90;;;;;;4983865;28;20030;-82
2023/03/03 05:17:57;;;;;;;38.72;14.85;;;3.60;99.90;;;;;;4985183;28;20410;-81
2023/03/03 05:20:24;;;;;;;43.88;15.38;;;3.60;99.90;;;;;;4983131;28;20385;-81
2023/03/03 05:22:50;;;;;;;39.70;15.07;;;3.70;99.90;;;;;;4959120;28;20031;-79
2023/03/03 05:25:16;;;;;;;40.70;14.35;;;3.60;99.90;;;;;;4984055;28;21945;-79
2023/03/03 05:27:42;;;;;;;38.85;13.65;;;3.60;99.90;;;;;;4983012;28;20093;-79
2023/03/03 05:30:11;;;;;;;43.05;14.90;;;3.60;99.90;;;;;;4965359;28;20022;-79
2023/03/03 05:32:37;;;;;;;41.28;15.35;;;3.70;99.90;;;;;;4966228;28;20022;-79
2023/03/03 05:35:04;;;;;;;41.72;14.63;;;3.70;99.90;;;;;;4982458;28;20030;-80
2023/03/03 05:37:29;;;;;;;43.05;14.15;;;3.70;99.90;;;;;;4981093;28;20359;-79
2023/03/03 05:39:55;;;;;;;39.13;15.05;;;3.70;99.90;;;;;;4985186;28;20348;-79
2023/03/03 05:42:20;;;;;;;41.28;15.60;;;3.70;99.90;;;;;;4965771;28;20502;-79
2023/03/03 05:44:46;;;;;;;39.53;13.75;;;3.70;99.90;;;;;;4983868;28;20508;-80
2023/03/03 05:47:12;;;;;;;39.70;14.35;;;3.70;99.90;;;;;;4983006;28;20045;-79
2023/03/03 05:49:40;;;;;;;38.70;13.93;;;3.70;99.90;;;;;;4968602;28;20023;-79
2023/03/03 05:52:06;;;;;;;41.67;13.25;;;3.70;99.90;;;;;;4965997;28;20371;-79
2023/03/03 05:54:32;;;;;;;35.47;13.18;;;3.60;99.90;;;;;;4966376;28;20120;-79
2023/03/03 05:56:59;;;;;;;34.70;11.45;;;3.50;99.90;;;;;;4967313;28;20378;-79
2023/03/03 05:59:25;;;;;;;39.65;13.68;;;3.40;99.90;;;;;;4967831;28;20223;-79
2023/03/03 06:01:51;;;;;;;39.00;13.27;;;3.40;99.90;;;;;;4966242;28;20028;-79
2023/03/03 06:04:16;;;;;;;35.70;12.93;;;3.40;99.90;;;;;;4986400;28;20036;-79
2023/03/03 06:06:42;;;;;;;36.95;13.23;;;3.40;99.90;;;;;;4983848;28;20033;-80
2023/03/03 06:09:08;;;;;;;38.63;13.93;;;3.50;99.90;;;;;;4965619;28;20046;-79
2023/03/03 06:11:34;;;;;;;37.17;13.50;;;3.40;99.90;;;;;;4984870;28;20034;-79
2023/03/03 06:14:01;;;;;;;37.05;13.23;;;3.40;99.90;;;;;;4984876;28;20506;-79
2023/03/03 06:16:27;;;;;;;35.60;12.30;;;3.40;99.90;;;;;;4963689;28;20019;-80
2023/03/03 06:18:53;;;;;;;37.38;13.10;;;3.40;99.90;;;;;;4983904;28;20209;-79
2023/03/03 06:21:18;;;;;;;30.23;12.85;;;3.40;99.90;;;;;;4978664;28;20030;-80
2023/03/03 06:23:44;;;;;;;32.65;12.30;;;3.50;99.90;;;;;;4986031;28;20026;-80
2023/03/03 06:26:09;;;;;;;34.13;12.10;;;3.50;99.90;;;;;;4963719;28;20379;-79
2023/03/03 06:28:37;;;;;;;40.00;13.25;;;3.50;99.90;;;;;;4969517;28;20038;-80
2023/03/03 06:31:03;;;;;;;29.58;11.90;;;3.50;99.90;;;;;;4975453;28;20042;-79
2023/03/03 06:33:28;;;;;;;35.20;13.00;;;3.50;99.90;;;;;;4969623;28;20143;-79
2023/03/03 06:35:54;;;;;;;39.40;12.80;;;3.50;99.90;;;;;;4986675;28;20026;-79
2023/03/03 06:38:20;;;;;;;39.20;13.80;;;3.50;99.90;;;;;;4966554;28;20110;-81
2023/03/03 06:40:48;;;;;;;31.10;12.07;;;3.60;99.90;;;;;;4984500;28;20379;-80
2023/03/03 06:43:14;;;;;;;32.22;11.95;;;3.60;99.90;;;;;;4966317;28;20022;-81
2023/03/03 06:45:40;;;;;;;32.90;12.27;;;3.60;99.90;;;;;;4955573;28;20022;-82
2023/03/03 06:48:05;;;;;;;34.15;12.73;;;3.60;99.90;;;;;;4981212;28;20450;-81
2023/03/03 06:50:31;;;;;;;32.20;12.40;;;3.60;99.90;;;;;;4982011;28;20054;-81
2023/03/03 06:53:18;;;;;;;35.88;13.98;;;3.70;99.90;;;;;;4963748;28;20059;-82
2023/03/03 06:55:44;;;;;;;35.50;12.55;;;3.70;99.90;;;;;;4964987;28;20088;-80
2023/03/03 06:58:19;;;;;;;35.85;12.75;;;3.70;99.90;;;;;;4982955;28;20022;-81
2023/03/03 07:00:57;;;;;;;34.83;12.85;;;3.80;99.90;;;;;;4968566;28;20779;-80
2023/03/03 07:03:33;;;;;;;39.70;13.60;;;3.70;99.90;;;;;;4969768;28;20463;-80
2023/03/03 07:06:00;;;;;;;40.97;13.68;;;3.70;99.90;;;;;;4970947;28;20038;-81
2023/03/03 07:08:33;;;;;;;35.30;13.20;;;3.80;99.90;;;;;;4972269;28;20113;-81
2023/03/03 07:11:11;;;;;;;35.20;13.35;;;3.90;99.90;;;;;;4991908;28;20083;-80
2023/03/03 07:13:41;;;;;;;36.95;13.45;;;3.90;99.90;;;;;;4974759;28;20081;-81
2023/03/03 07:16:12;;;;;;;38.20;13.40;;;3.90;99.90;;;;;;4986604;28;20037;-79
2023/03/03 07:18:44;;;;;;;40.75;14.27;;;3.80;99.90;;;;;;4969362;28;20429;-79
2023/03/03 07:21:32;;;;;;;38.58;13.82;;;3.90;99.90;;;;;;4968566;28;20029;-78
2023/03/03 07:23:59;;;;;;;37.78;14.52;;;3.90;99.90;;;;;;4968990;28;20034;-77
2023/03/03 07:26:27;;;;;;;40.13;14.35;;;3.90;99.90;;;;;;4984120;28;20026;-78
2023/03/03 07:29:17;;;;;;;44.80;14.75;;;4.00;99.90;;;;;;4984648;28;20237;-77
2023/03/03 07:31:47;;;;;;;45.03;14.68;;;4.00;99.90;;;;;;4971468;28;20113;-77
2023/03/03 07:34:34;;;;;;;41.72;15.27;;;4.10;99.90;;;;;;4982107;28;20085;-81
2023/03/03 07:37:15;;;;;;;35.80;13.80;;;4.10;99.90;;;;;;4985408;28;20054;-81
2023/03/03 07:39:44;;;;;;;43.47;13.95;;;4.10;99.90;;;;;;4983633;28;20169;-81
2023/03/03 07:42:16;;;;;;;40.13;14.05;;;4.10;99.90;;;;;;4971362;28;20116;-80
2023/03/03 07:44:44;;;;;;;34.13;12.82;;;4.10;99.90;;;;;;4983796;28;20065;-81
2023/03/03 07:47:24;;;;;;;40.55;14.48;;;4.20;99.90;;;;;;4986594;28;20030;-80
2023/03/03 07:49:51;;;;;;;38.80;13.38;;;4.20;99.90;;;;;;4983405;28;20023;-81
2023/03/03 07:52:40;;;;;;;39.75;14.18;;;4.30;99.90;;;;;;4968828;28;20557;-81
2023/03/03 07:55:50;;;;;;;33.17;13.52;;;4.40;99.90;;;;;;4968799;28;20573;-81
2023/03/03 07:58:34;;;;;;;38.30;12.75;;;4.40;99.90;;;;;;4968329;28;20051;-79
2023/03/03 08:01:39;;;;;;;41.05;13.80;;;4.40;99.90;;;;;;4984351;28;20065;-77
2023/03/03 08:04:21;;;;;;;35.25;13.75;;;4.50;99.90;;;;;;4965503;28;20041;-79
2023/03/03 08:06:59;;;;;;;40.92;13.70;;;4.50;99.90;;;;;;4970716;28;20030;-78
2023/03/03 08:09:39;;;;;;;39.15;13.75;;;4.50;99.90;;;;;;4968153;28;20026;-79
2023/03/03 08:12:28;;;;;;;35.40;14.13;;;4.60;99.90;;;;;;4981192;28;20030;-79
2023/03/03 08:14:57;;;;;;;43.40;13.23;;;4.70;99.90;;;;;;4981734;28;20023;-80
2023/03/03 08:17:31;;;;;;;40.08;15.50;;;4.70;99.90;;;;;;4967218;28;20038;-80
2023/03/03 08:19:57;;;;;;;46.30;14.35;;;4.70;99.90;;;;;;4964550;28;20023;-77
2023/03/03 08:22:37;;;;;;;35.58;13.43;;;4.70;99.90;;;;;;4969489;28;20549;-78
2023/03/03 08:25:03;;;;;;;36.92;12.77;;;4.70;99.90;;;;;;4981529;28;20011;-77
2023/03/03 08:27:29;;;;;;;37.80;13.77;;;4.80;99.90;;;;;;4970534;28;20557;-80
2023/03/03 08:29:57;;;;;;;35.17;12.95;;;4.80;99.90;;;;;;4962790;28;20030;-78
2023/03/03 08:32:23;;;;;;;32.35;12.25;;;4.80;99.90;;;;;;4981059;28;20030;-77
2023/03/03 08:34:48;;;;;;;37.08;12.27;;;4.80;99.90;;;;;;4981351;28;20375;-77
2023/03/03 08:37:14;;;;;;;34.20;12.63;;;4.90;99.90;;;;;;4982447;28;20034;-80
2023/03/03 08:39:40;;;;;;;35.20;13.20;;;4.80;99.90;;;;;;4982080;28;20539;-78
2023/03/03 08:42:08;;;;;;;34.92;11.98;;;4.70;99.90;;;;;;4963509;28;20122;-76
2023/03/03 08:44:36;;;;;;;31.20;11.80;;;4.70;99.90;;;;;;4969671;28;20064;-79
2023/03/03 08:47:02;;;;;;;32.60;11.18;;;4.70;99.90;;;;;;4967601;28;20118;-80
2023/03/03 08:49:30;;;;;;;29.88;11.77;;;4.70;99.90;;;;;;4978630;28;20171;-79
2023/03/03 08:51:57;;;;;;;37.10;11.77;;;4.70;99.90;;;;;;4963404;28;20635;-78
2023/03/03 08:54:23;;;;;;;37.38;13.15;;;4.80;99.90;;;;;;4978829;28;20045;-82
2023/03/03 08:56:49;;;;;;;35.13;13.05;;;4.80;99.90;;;;;;4982394;28;20022;-80
2023/03/03 08:59:14;;;;;;;41.40;12.52;;;4.90;99.90;;;;;;4966222;28;20463;-80
2023/03/03 09:01:43;;;;;;;34.08;12.02;;;5.00;99.90;;;;;;4978152;28;20042;-78
2023/03/03 09:04:09;;;;;;;34.17;12.35;;;5.10;99.90;;;;;;4964156;28;20022;-80
2023/03/03 09:06:35;;;;;;;37.78;12.32;;;5.10;99.90;;;;;;4963278;28;20146;-78
2023/03/03 09:09:01;;;;;;;37.65;13.20;;;5.00;99.90;;;;;;4967506;28;20072;-80
2023/03/03 09:11:28;;;;;;;35.67;12.43;;;5.10;99.90;;;;;;4965840;28;20081;-82
2023/03/03 09:14:12;;;;;;;32.83;11.88;;;5.10;99.90;;;;;;4968348;28;20143;-82
2023/03/03 09:16:40;;;;;;;30.67;12.48;;;5.10;99.90;;;;;;4980157;28;20558;-80
2023/03/03 09:19:31;;;;;;;31.17;11.43;;;5.10;99.90;;;;;;4986190;28;20065;-79
2023/03/03 09:22:21;;;;;;;38.13;12.32;;;5.20;99.90;;;;;;5000344;28;20022;-81
2023/03/03 09:24:49;;;;;;;33.45;11.80;;;5.30;99.90;;;;;;5006042;28;20030;-79
2023/03/03 09:27:26;;;;;;;36.90;12.02;;;5.40;99.90;;;;;;5007191;28;20038;-81
2023/03/03 09:29:51;;;;;;;36.53;13.32;;;5.50;99.90;;;;;;5003426;28;20070;-81
2023/03/03 09:32:46;;;;;;;43.58;12.02;;;5.70;99.90;;;;;;5003513;28;20097;-79
2023/03/03 09:35:39;;;;;;;31.33;11.68;;;5.80;99.90;;;;;;4997272;28;20042;-80
2023/03/03 10:13:14;;;;;;;34.25;12.45;;;6.90;99.90;;;;;;4700040;30;20037;-80
2023/03/03 10:16:09;;;;;;;34.03;11.88;;;7.00;99.90;;;;;;4711180;30;20037;-80
2023/03/03 10:42:41;;;;;;;38.53;13.52;;;7.40;99.90;;;;;;4984663;28;20374;-79
2023/03/03 10:45:21;;;;;;;30.17;12.88;;;7.40;99.90;;;;;;4976645;28;20030;-80
2023/03/03 10:47:56;;;;;;;36.47;13.80;;;7.40;99.90;;;;;;4984580;28;20065;-79
2023/03/03 10:50:58;;;;;;;32.00;13.10;;;7.40;99.90;;;;;;4988061;28;20168;-79
2023/03/03 10:53:48;;;;;;;31.23;11.55;;;7.50;99.90;;;;;;4984834;28;20452;-81
2023/03/03 10:56:35;;;;;;;30.42;11.95;;;7.60;99.90;;;;;;4985543;28;20126;-86
2023/03/03 10:59:21;;;;;;;31.65;12.70;;;7.70;99.90;;;;;;4987172;28;20509;-80
2023/03/03 11:01:53;;;;;;;37.88;12.75;;;7.90;99.90;;;;;;4968978;28;20141;-78
2023/03/03 11:04:40;;;;;;;37.43;12.23;;;8.40;99.90;;;;;;4969707;28;21098;-78
2023/03/03 11:07:14;;;;;;;33.10;12.55;;;9.50;99.90;;;;;;4969151;28;20313;-79
2023/03/03 11:09:53;;;;;;;31.83;12.90;;;10.20;99.90;;;;;;4967662;28;20076;-78
2023/03/03 11:12:30;;;;;;;26.30;11.27;;;10.90;99.90;;;;;;4965647;28;20030;-79
2023/03/03 11:15:25;;;;;;;31.95;12.40;;;11.80;99.90;;;;;;4982452;28;20482;-79
2023/03/03 11:18:20;;;;;;;25.25;11.93;;;12.20;99.90;;;;;;4946740;28;20066;-81
2023/03/03 11:21:13;;;;;;;27.15;11.45;;;12.40;99.40;;;;;;4968782;28;20485;-78
2023/03/03 11:23:57;;;;;;;31.85;12.43;;;11.90;98.50;;;;;;4970135;28;20072;-79
2023/03/03 11:26:22;;;;;;;26.63;11.07;;;11.40;98.80;;;;;;4960682;28;20037;-78
2023/03/03 11:29:01;;;;;;;28.48;12.40;;;11.00;98.90;;;;;;4969119;28;20342;-78
2023/03/03 11:31:29;;;;;;;32.15;12.10;;;11.00;99.10;;;;;;4968156;28;20084;-79
2023/03/03 11:34:34;;;;;;;29.23;11.73;;;11.30;99.90;;;;;;4968313;28;20089;-79
2023/03/03 11:37:08;;;;;;;25.40;11.20;;;11.80;98.30;;;;;;4984776;28;20038;-79
2023/03/03 11:39:34;;;;;;;28.38;11.50;;;12.50;97.20;;;;;;4986370;28;20482;-79
2023/03/03 11:42:11;;;;;;;27.02;10.68;;;12.50;96.40;;;;;;4984195;28;20027;-79
2023/03/03 11:44:43;;;;;;;26.60;12.02;;;12.70;95.90;;;;;;4983528;28;20058;-79
2023/03/03 11:47:41;;;;;;;28.17;11.75;;;12.70;95.10;;;;;;4964528;28;20116;-79
2023/03/03 11:50:28;;;;;;;28.50;11.82;;;12.30;95.10;;;;;;4984308;28;20117;-78
2023/03/03 11:52:53;;;;;;;35.70;14.15;;;12.00;97.40;;;;;;4983248;28;20084;-80
2023/03/03 11:55:32;;;;;;;30.70;13.65;;;12.40;96.10;;;;;;4984054;28;20105;-79
2023/03/03 11:58:19;;;;;;;26.45;12.05;;;12.70;96.90;;;;;;4982466;28;20064;-79
2023/03/03 12:01:15;;;;;;;27.75;11.55;;;12.80;94.20;;;;;;4968604;28;20031;-79
2023/03/03 12:03:50;;;;;;;26.95;12.00;;;12.90;94.00;;;;;;4961840;28;20053;-79
2023/03/03 12:06:31;;;;;;;30.27;12.43;;;13.30;93.80;;;;;;4982828;28;20114;-79
2023/03/03 12:09:11;;;;;;;21.60;10.68;;;13.60;92.60;;;;;;4984172;28;20034;-79
2023/03/03 12:12:00;;;;;;;25.63;12.07;;;14.10;92.90;;;;;;4984528;28;20036;-78
2023/03/03 12:14:45;;;;;;;28.60;13.43;;;14.50;92.40;;;;;;4958999;28;20034;-80
2023/03/03 12:17:44;;;;;;;31.27;13.57;;;14.40;90.80;;;;;;4976683;28;20482;-79
2023/03/03 12:20:41;;;;;;;30.05;14.38;;;13.70;92.30;;;;;;4981337;28;20023;-80
2023/03/03 12:23:38;;;;;;;26.08;12.75;;;13.40;92.10;;;;;;4963950;28;20040;-78
2023/03/03 12:26:15;;;;;;;30.50;13.65;;;12.80;92.70;;;;;;4962938;28;20402;-78
2023/03/03 12:28:53;;;;;;;35.25;13.70;;;12.40;92.90;;;;;;4964878;28;20031;-78
2023/03/03 12:31:44;;;;;;;33.25;14.20;;;12.20;93.90;;;;;;4981134;28;20483;-78
2023/03/03 12:34:31;;;;;;;32.83;13.60;;;12.50;94.50;;;;;;4963948;28;20069;-78
2023/03/03 12:37:26;;;;;;;35.10;13.77;;;13.00;93.10;;;;;;4968888;28;20448;-79
2023/03/03 12:40:07;;;;;;;31.58;14.10;;;13.50;92.60;;;;;;4963891;28;20666;-79
2023/03/03 12:43:10;;;;;;;29.35;13.80;;;14.20;91.40;;;;;;4982477;28;20491;-78
2023/03/03 12:45:39;;;;;;;31.02;13.65;;;14.00;90.40;;;;;;4983388;28;21158;-78
2023/03/03 12:48:23;;;;;;;27.90;12.65;;;14.50;90.70;;;;;;4982319;28;20541;-79
2023/03/03 12:51:10;;;;;;;27.75;13.23;;;14.70;89.20;;;;;;4968295;28;20509;-79
2023/03/03 12:53:47;;;;;;;30.67;13.38;;;14.90;88.10;;;;;;4967500;28;20091;-79
2023/03/03 12:56:24;;;;;;;30.25;12.95;;;14.60;88.30;;;;;;4980819;28;20022;-79
2023/03/03 12:58:56;;;;;;;29.67;13.48;;;14.90;87.50;;;;;;4982804;28;20431;-79
2023/03/03 13:01:32;;;;;;;36.47;14.02;;;14.90;87.30;;;;;;4961769;28;20036;-78
2023/03/03 13:04:24;;;;;;;26.30;13.50;;;15.20;85.70;;;;;;4970311;28;20027;-79
2023/03/03 13:07:03;;;;;;;28.35;12.68;;;15.00;85.80;;;;;;4961819;28;20135;-79
2023/03/03 13:09:34;;;;;;;32.50;14.45;;;14.80;83.90;;;;;;4957035;28;20037;-79
2023/03/03 13:12:34;;;;;;;26.05;12.65;;;14.70;87.00;;;;;;4961467;28;20462;-79
2023/03/03 13:15:12;;;;;;;28.38;12.95;;;14.80;87.20;;;;;;4971241;28;20498;-79
2023/03/03 13:17:39;;;;;;;26.85;13.23;;;15.50;83.90;;;;;;4961470;28;20034;-79
2023/03/03 13:20:18;;;;;;;24.60;12.25;;;15.90;82.10;;;;;;4960795;28;20041;-78
2023/03/03 13:22:47;;;;;;;24.75;12.15;;;16.10;80.70;;;;;;4969826;28;20026;-79
2023/03/03 13:25:23;;;;;;;25.63;12.40;;;16.40;78.20;;;;;;4971188;28;20053;-80
2023/03/03 13:27:55;;;;;;;26.95;13.32;;;16.50;76.30;;;;;;4963703;28;20064;-79
2023/03/03 13:30:30;;;;;;;28.70;13.95;;;16.50;76.90;;;;;;4959529;28;20297;-80
2023/03/03 13:33:09;;;;;;;27.83;14.80;;;16.90;76.10;;;;;;4973461;28;20026;-79
2023/03/03 13:35:46;;;;;;;30.52;15.65;;;18.10;72.00;;;;;;4977741;28;20022;-81
2023/03/03 13:38:24;;;;;;;26.67;14.63;;;17.40;72.80;;;;;;4974033;28;20329;-79
2023/03/03 13:40:58;;;;;;;28.88;15.48;;;18.40;72.00;;;;;;4962156;28;20034;-79
2023/03/03 13:43:48;;;;;;;28.05;15.93;;;19.40;66.10;;;;;;4974466;28;21145;-81
2023/03/03 13:46:39;;;;;;;23.15;13.25;;;21.00;63.70;;;;;;4964040;28;20117;-79
2023/03/03 13:49:07;;;;;;;30.67;16.40;;;23.80;56.80;;;;;;4953425;28;20196;-79
2023/03/03 13:51:55;;;;;;;31.92;16.33;;;27.40;49.40;;;;;;4970600;28;20034;-79
2023/03/03 13:54:55;;;;;;;32.58;17.33;;;29.40;42.80;;;;;;4955855;28;20878;-77
2023/03/03 13:57:23;;;;;;;29.02;15.52;;;29.50;38.00;;;;;;4959388;28;20050;-79
2023/03/03 14:00:21;;;;;;;25.92;14.70;;;30.00;35.30;;;;;;4957921;28;20125;-78
2023/03/03 14:02:58;;;;;;;27.05;15.52;;;31.00;34.50;;;;;;4904815;28;20044;-78
2023/03/03 14:05:35;;;;;;;24.98;15.18;;;31.80;32.50;;;;;;4970881;28;20035;-78